createdAt,value
2018-09-25T00:02:10.571Z,94.80
2018-09-25T00:04:45.528Z,95.50
2018-09-25T00:07:20.375Z,95.80
2018-09-25T00:09:55.127Z,95.60
2018-09-25T00:12:29.590Z,95.60
2018-09-25T00:15:04.664Z,95.30
2018-09-25T00:17:39.620Z,95.90
2018-09-25T00:20:14.318Z,93.80
2018-09-25T00:22:49.495Z,95.20
2018-09-25T00:25:24.034Z,95.40
2018-09-25T00:27:58.769Z,95.90
2018-09-25T00:30:33.828Z,95.90
2018-09-25T00:33:08.502Z,96.40
2018-09-25T00:35:43.247Z,96.00
2018-09-25T00:38:18.185Z,96.40
2018-09-25T00:40:52.991Z,96.70
2018-09-25T00:43:27.402Z,95.90
2018-09-25T00:46:02.087Z,96.80
2018-09-25T00:48:37.007Z,96.70
2018-09-25T00:51:11.694Z,96.80
2018-09-25T00:53:46.446Z,97.30
2018-09-25T00:56:21.359Z,97.70
2018-09-25T00:58:55.983Z,97.30
2018-09-25T01:01:30.645Z,97.60
2018-09-25T01:04:05.462Z,97.40
2018-09-25T01:06:40.623Z,97.20
2018-09-25T01:09:15.246Z,97.60
2018-09-25T01:11:50.239Z,98.20
2018-09-25T01:14:24.955Z,97.80
2018-09-25T01:16:59.347Z,98.10
2018-09-25T01:19:33.866Z,97.30
2018-09-25T01:22:08.480Z,97.70
2018-09-25T01:24:43.123Z,96.90
2018-09-25T01:27:17.762Z,97.60
2018-09-25T01:29:52.826Z,98.70
2018-09-25T01:32:34.682Z,97.30
2018-09-25T01:35:09.353Z,98.30
2018-09-25T01:37:43.826Z,98.20
2018-09-25T01:40:18.916Z,97.70
2018-09-25T01:42:53.591Z,98.50
2018-09-25T01:45:28.242Z,97.90
2018-09-25T01:48:03.227Z,97.70
2018-09-25T01:50:37.898Z,99.00
2018-09-25T01:53:12.650Z,98.80
2018-09-25T01:55:47.295Z,98.80
2018-09-25T01:58:21.910Z,98.70
2018-09-25T02:00:56.605Z,98.00
2018-09-25T02:03:31.339Z,98.80
2018-09-25T02:06:06.691Z,98.90
2018-09-25T02:08:41.523Z,99.50
2018-09-25T02:11:16.478Z,98.80
2018-09-25T02:13:51.071Z,99.10
2018-09-25T02:16:25.947Z,98.60
2018-09-25T02:19:00.759Z,99.90
2018-09-25T02:21:35.907Z,99.90
2018-09-25T02:24:10.384Z,98.30
2018-09-25T02:26:45.195Z,99.40
2018-09-25T02:29:19.679Z,99.90
2018-09-25T02:31:54.278Z,99.10
2018-09-25T02:34:28.739Z,99.90
2018-09-25T02:37:03.290Z,99.20
2018-09-25T02:39:37.678Z,99.90
2018-09-25T02:42:12.331Z,99.10
2018-09-25T02:44:46.858Z,99.60
2018-09-25T02:47:21.620Z,99.80
2018-09-25T02:49:56.121Z,99.90
2018-09-25T02:52:30.625Z,99.60
2018-09-25T02:55:05.083Z,99.90
2018-09-25T02:57:39.647Z,99.80
2018-09-25T03:00:24.901Z,99.90
2018-09-25T03:03:00.519Z,99.90
2018-09-25T03:05:35.000Z,99.80
2018-09-25T03:08:09.498Z,99.80
2018-09-25T03:10:43.981Z,99.90
2018-09-25T03:13:18.534Z,99.80
2018-09-25T03:15:53.019Z,99.90
2018-09-25T03:18:27.450Z,99.90
2018-09-25T03:21:01.956Z,99.90
2018-09-25T03:23:36.274Z,99.40
2018-09-25T03:26:10.612Z,98.90
2018-09-25T03:28:44.951Z,99.90
2018-09-25T03:31:19.343Z,99.90
2018-09-25T03:33:53.680Z,99.90
2018-09-25T03:36:28.388Z,99.40
2018-09-25T03:39:02.910Z,99.90
2018-09-25T03:41:37.490Z,99.90
2018-09-25T03:44:12.175Z,99.90
2018-09-25T03:46:46.675Z,99.80
2018-09-25T03:49:21.079Z,99.80
2018-09-25T03:51:55.567Z,99.90
2018-09-25T03:54:30.043Z,99.90
2018-09-25T03:57:04.555Z,99.90
2018-09-25T03:59:39.007Z,99.80
2018-09-25T04:02:13.551Z,99.90
2018-09-25T04:04:47.913Z,99.90
2018-09-25T04:07:22.191Z,99.90
2018-09-25T04:09:56.900Z,99.90
2018-09-25T04:12:31.359Z,99.90
2018-09-25T04:15:05.900Z,99.90
2018-09-25T04:17:40.383Z,99.90
2018-09-25T04:20:14.955Z,99.90
2018-09-25T04:22:49.522Z,99.50
2018-09-25T04:25:24.133Z,99.70
2018-09-25T04:27:58.839Z,99.80
2018-09-25T04:30:33.810Z,99.90
2018-09-25T04:33:08.444Z,99.90
2018-09-25T04:35:43.038Z,99.70
2018-09-25T04:38:17.634Z,99.30
2018-09-25T04:40:52.183Z,99.20
2018-09-25T04:43:26.763Z,99.50
2018-09-25T04:46:01.427Z,99.30
2018-09-25T04:48:35.775Z,99.70
2018-09-25T04:51:10.478Z,99.90
2018-09-25T04:53:45.343Z,99.70
2018-09-25T04:56:19.863Z,99.90
2018-09-25T04:58:54.345Z,99.10
2018-09-25T05:01:28.969Z,99.70
2018-09-25T05:04:04.611Z,99.90
2018-09-25T05:06:39.389Z,99.20
2018-09-25T05:09:13.915Z,99.90
2018-09-25T05:11:48.333Z,99.90
2018-09-25T05:14:22.955Z,99.90
2018-09-25T05:16:57.775Z,99.90
2018-09-25T05:19:32.623Z,99.90
2018-09-25T05:22:08.725Z,99.80
2018-09-25T05:24:43.815Z,99.20
2018-09-25T05:27:18.474Z,99.90
2018-09-25T05:29:52.803Z,99.90
2018-09-25T05:32:27.379Z,99.90
2018-09-25T05:35:02.096Z,98.70
2018-09-25T05:37:37.107Z,99.70
2018-09-25T05:40:11.806Z,99.90
2018-09-25T05:42:47.071Z,99.60
2018-09-25T05:45:21.564Z,99.30
2018-09-25T05:47:56.616Z,99.30
2018-09-25T05:50:31.243Z,99.60
2018-09-25T05:53:06.290Z,99.30
2018-09-25T05:55:40.917Z,99.20
2018-09-25T05:58:15.373Z,98.90
2018-09-25T06:00:49.877Z,99.20
2018-09-25T06:03:24.436Z,99.20
2018-09-25T06:05:58.997Z,99.90
2018-09-25T06:08:33.623Z,99.60
2018-09-25T06:11:08.154Z,99.90
2018-09-25T06:13:42.504Z,99.90
2018-09-25T06:16:16.943Z,99.90
2018-09-25T06:18:51.786Z,99.90
2018-09-25T06:21:26.433Z,99.90
2018-09-25T06:24:01.094Z,99.90
2018-09-25T06:26:36.251Z,99.90
2018-09-25T06:29:10.719Z,99.70
2018-09-25T06:31:45.280Z,99.90
2018-09-25T06:34:19.833Z,99.90
2018-09-25T06:36:54.381Z,99.90
2018-09-25T06:39:29.631Z,99.90
2018-09-25T06:42:04.223Z,99.90
2018-09-25T06:44:38.775Z,99.90
2018-09-25T06:47:13.219Z,99.90
2018-09-25T06:49:47.678Z,99.90
2018-09-25T06:52:21.995Z,99.90
2018-09-25T06:54:56.717Z,99.90
2018-09-25T06:58:55.523Z,99.90
2018-09-25T07:01:30.019Z,99.00
2018-09-25T07:04:04.512Z,99.20
2018-09-25T07:06:38.979Z,99.90
2018-09-25T07:09:14.062Z,97.80
2018-09-25T07:11:48.626Z,99.90
2018-09-25T07:14:23.003Z,99.90
2018-09-25T07:16:57.458Z,99.90
2018-09-25T07:19:32.911Z,99.90
2018-09-25T07:22:07.387Z,99.90
2018-09-25T07:24:41.965Z,99.90
2018-09-25T07:27:16.979Z,99.90
2018-09-25T07:29:51.331Z,99.90
2018-09-25T07:32:26.033Z,98.70
2018-09-25T07:35:00.722Z,99.80
2018-09-25T07:37:35.747Z,99.40
2018-09-25T07:40:10.306Z,99.80
2018-09-25T07:42:44.845Z,99.30
2018-09-25T07:45:19.435Z,99.90
2018-09-25T07:47:53.778Z,98.70
2018-09-25T07:50:28.270Z,99.90
2018-09-25T07:53:02.726Z,99.20
2018-09-25T07:55:37.023Z,98.20
2018-09-25T07:58:11.548Z,99.90
2018-09-25T08:00:46.170Z,98.80
2018-09-25T08:03:20.568Z,99.30
2018-09-25T08:05:55.015Z,98.50
2018-09-25T08:08:29.667Z,97.40
2018-09-25T08:11:04.140Z,99.00
2018-09-25T08:13:38.426Z,99.10
2018-09-25T08:16:12.919Z,98.60
2018-09-25T08:18:47.335Z,98.90
2018-09-25T08:21:21.882Z,98.00
2018-09-25T08:23:56.166Z,97.80
2018-09-25T08:26:30.542Z,98.30
2018-09-25T08:29:04.942Z,96.30
2018-09-25T08:31:39.220Z,98.40
2018-09-25T08:34:13.691Z,96.60
2018-09-25T08:36:48.231Z,97.30
2018-09-25T08:39:22.827Z,97.40
2018-09-25T08:41:57.271Z,98.70
2018-09-25T08:44:31.802Z,98.10
2018-09-25T08:47:06.126Z,97.90
2018-09-25T08:49:40.658Z,97.60
2018-09-25T08:52:15.266Z,96.20
2018-09-25T08:54:49.695Z,98.60
2018-09-25T08:57:24.127Z,97.60
2018-09-25T08:59:58.627Z,97.70
2018-09-25T09:02:33.015Z,92.60
2018-09-25T09:05:07.596Z,94.90
2018-09-25T09:07:42.227Z,94.30
2018-09-25T09:10:16.754Z,97.70
2018-09-25T09:12:51.206Z,92.60
2018-09-25T09:15:26.265Z,96.30
2018-09-25T09:18:00.942Z,96.90
2018-09-25T09:20:35.466Z,91.10
2018-09-25T09:23:09.874Z,95.30
2018-09-25T09:25:44.384Z,93.70
2018-09-25T09:28:18.929Z,88.90
2018-09-25T09:30:53.338Z,84.90
2018-09-25T09:33:27.718Z,89.10
2018-09-25T09:36:02.130Z,93.10
2018-09-25T09:38:36.789Z,90.20
2018-09-25T09:41:11.160Z,72.20
2018-09-25T09:43:45.522Z,76.10
2018-09-25T09:46:19.967Z,69.90
2018-09-25T09:48:54.372Z,83.30
2018-09-25T09:51:28.859Z,78.60
2018-09-25T09:54:03.287Z,68.00
2018-09-25T09:56:37.795Z,61.20
2018-09-25T09:59:15.242Z,73.00
2018-09-25T10:01:49.658Z,77.90
2018-09-25T10:04:24.036Z,87.10
2018-09-25T10:06:58.667Z,80.00
2018-09-25T10:09:33.218Z,79.00
2018-09-25T10:12:07.759Z,75.10
2018-09-25T10:14:42.308Z,66.80
2018-09-25T10:17:16.896Z,72.10
2018-09-25T10:19:51.311Z,69.00
2018-09-25T10:22:25.882Z,71.90
2018-09-25T10:25:00.299Z,76.00
2018-09-25T10:27:34.946Z,67.90
2018-09-25T10:30:09.602Z,82.50
2018-09-25T10:32:44.104Z,88.30
2018-09-25T10:35:18.532Z,79.40
2018-09-25T10:37:53.070Z,69.90
2018-09-25T10:40:27.602Z,65.80
2018-09-25T10:43:02.435Z,76.20
2018-09-25T10:45:36.890Z,80.10
2018-09-25T10:48:11.823Z,71.60
2018-09-25T10:50:47.207Z,68.30
2018-09-25T10:53:23.667Z,72.50
2018-09-25T10:55:58.977Z,87.50
2018-09-25T10:58:35.375Z,74.00
2018-09-25T11:01:11.487Z,63.70
2018-09-25T11:03:46.603Z,72.70
2018-09-25T11:06:22.854Z,61.10
2018-09-25T11:08:59.416Z,66.70
2018-09-25T11:11:34.697Z,69.80
2018-09-25T11:14:10.277Z,59.00
2018-09-25T11:16:46.852Z,54.60
2018-09-25T11:19:23.025Z,59.20
2018-09-25T11:21:58.136Z,64.90
2018-09-25T11:24:33.909Z,65.60
2018-09-25T11:27:09.113Z,63.40
2018-09-25T11:29:44.768Z,67.10
2018-09-25T11:32:20.014Z,58.40
2018-09-25T11:34:55.867Z,72.20
2018-09-25T11:37:30.599Z,60.90
2018-09-25T11:40:05.330Z,59.00
2018-09-25T11:42:39.774Z,60.40
2018-09-25T11:45:14.440Z,54.70
2018-09-25T11:47:49.058Z,58.20
2018-09-25T11:50:23.493Z,56.20
2018-09-25T11:52:57.947Z,49.90
2018-09-25T11:55:32.644Z,50.40
2018-09-25T11:58:06.979Z,50.40
2018-09-25T12:00:41.630Z,45.30
2018-09-25T12:03:16.144Z,46.40
2018-09-25T12:05:50.709Z,49.90
2018-09-25T12:08:24.986Z,49.60
2018-09-25T12:10:59.615Z,48.90
2018-09-25T12:13:34.193Z,50.60
2018-09-25T12:16:08.763Z,48.00
2018-09-25T12:18:43.528Z,53.40
2018-09-25T12:21:18.174Z,53.40
2018-09-25T12:23:53.369Z,44.30
2018-09-25T12:26:28.203Z,50.40
2018-09-25T12:29:02.509Z,46.20
2018-09-25T12:31:37.279Z,44.00
2018-09-25T12:34:11.743Z,48.70
2018-09-25T12:36:46.355Z,43.20
2018-09-25T12:39:21.078Z,43.10
2018-09-25T12:41:55.937Z,48.80
2018-09-25T12:44:30.408Z,44.70
2018-09-25T12:47:05.008Z,44.40
2018-09-25T12:49:39.418Z,47.60
2018-09-25T12:52:14.022Z,45.20
2018-09-25T12:54:48.467Z,47.40
2018-09-25T12:57:23.066Z,44.90
2018-09-25T12:59:57.533Z,48.30
2018-09-25T13:02:32.091Z,51.20
2018-09-25T13:05:06.603Z,49.70
2018-09-25T13:07:41.235Z,49.20
2018-09-25T13:10:15.628Z,46.80
2018-09-25T13:12:50.234Z,47.20
2018-09-25T13:15:24.685Z,50.10
2018-09-25T13:18:00.178Z,54.00
2018-09-25T13:20:34.815Z,47.90
2018-09-25T13:23:09.414Z,51.90
2018-09-25T13:25:43.954Z,49.30
2018-09-25T13:28:19.019Z,48.60
2018-09-25T13:30:53.851Z,48.90
2018-09-25T13:33:28.796Z,47.30
2018-09-25T13:36:03.235Z,50.00
2018-09-25T13:38:37.971Z,46.50
2018-09-25T13:41:12.675Z,52.50
2018-09-25T13:43:47.488Z,51.70
2018-09-25T13:46:22.051Z,46.20
2018-09-25T13:48:56.847Z,50.10
2018-09-25T13:51:31.879Z,48.70
2018-09-25T13:54:13.084Z,51.30
2018-09-25T13:56:47.647Z,52.60
2018-09-25T13:59:24.782Z,50.10
2018-09-25T14:02:00.562Z,52.70
2018-09-25T14:04:35.126Z,60.10
2018-09-25T14:07:09.810Z,72.50
2018-09-25T14:09:44.268Z,54.00
2018-09-25T14:12:18.835Z,52.00
2018-09-25T14:14:53.356Z,56.60
2018-09-25T14:17:27.716Z,50.10
2018-09-25T14:20:02.186Z,51.30
2018-09-25T14:22:36.678Z,51.50
2018-09-25T14:25:11.253Z,47.60
2018-09-25T14:27:45.893Z,55.00
2018-09-25T14:30:20.161Z,41.80
2018-09-25T14:32:55.299Z,55.00
2018-09-25T14:35:30.025Z,48.90
2018-09-25T14:38:04.536Z,45.70
2018-09-25T14:40:38.950Z,49.80
2018-09-25T14:43:13.290Z,50.80
2018-09-25T14:45:48.430Z,47.90
2018-09-25T14:48:23.059Z,50.50
2018-09-25T14:50:57.748Z,57.00
2018-09-25T14:53:32.214Z,55.20
2018-09-25T14:56:06.856Z,48.10
2018-09-25T14:58:41.353Z,55.20
2018-09-25T15:01:15.992Z,58.80
2018-09-25T15:03:50.547Z,58.00
2018-09-25T15:06:24.979Z,61.60
2018-09-25T15:08:59.376Z,56.50
2018-09-25T15:11:33.948Z,54.20
2018-09-25T15:14:08.459Z,57.40
2018-09-25T15:16:43.424Z,56.80
2018-09-25T15:19:18.032Z,61.70
2018-09-25T15:21:53.335Z,57.10
2018-09-25T15:24:27.499Z,59.00
2018-09-25T15:27:03.108Z,59.60
2018-09-25T15:29:37.923Z,54.50
2018-09-25T15:32:12.495Z,62.20
2018-09-25T15:34:46.822Z,57.60
2018-09-25T15:37:21.350Z,48.40
2018-09-25T15:39:55.858Z,53.60
2018-09-25T15:42:30.482Z,56.20
2018-09-25T15:45:05.132Z,61.70
2018-09-25T15:47:39.830Z,61.80
2018-09-25T15:50:14.402Z,65.80
2018-09-25T15:52:48.951Z,58.20
2018-09-25T15:55:30.134Z,62.80
2018-09-25T15:58:04.756Z,54.60
2018-09-25T16:00:39.020Z,53.80
2018-09-25T16:03:13.751Z,53.80
2018-09-25T16:05:48.338Z,63.20
2018-09-25T16:08:22.834Z,68.20
2018-09-25T16:10:57.094Z,63.60
2018-09-25T16:13:31.599Z,65.70
2018-09-25T16:16:06.031Z,57.00
2018-09-25T16:18:40.586Z,66.70
2018-09-25T16:21:14.991Z,56.10
2018-09-25T16:23:49.627Z,62.20
2018-09-25T16:26:24.029Z,69.20
2018-09-25T16:28:59.830Z,67.50
2018-09-25T16:31:34.263Z,64.80
2018-09-25T16:34:08.862Z,63.70
2018-09-25T16:36:43.538Z,58.20
2018-09-25T16:39:18.193Z,62.00
2018-09-25T16:41:52.631Z,64.90
2018-09-25T16:44:27.594Z,70.50
2018-09-25T16:47:02.064Z,67.00
2018-09-25T16:49:36.701Z,66.80
2018-09-25T16:52:11.009Z,70.60
2018-09-25T16:54:45.480Z,71.60
2018-09-25T16:57:20.535Z,63.00
2018-09-25T16:59:55.158Z,65.40
2018-09-25T17:02:29.647Z,65.90
2018-09-25T17:05:04.063Z,69.60
2018-09-25T17:07:39.034Z,71.30
2018-09-25T17:10:13.611Z,62.40
2018-09-25T17:12:48.157Z,67.10
2018-09-25T17:15:22.754Z,69.80
2018-09-25T17:17:57.331Z,60.60
2018-09-25T17:20:31.858Z,72.70
2018-09-25T17:23:06.306Z,70.80
2018-09-25T17:25:40.646Z,69.30
2018-09-25T17:28:15.150Z,64.50
2018-09-25T17:30:49.670Z,70.40
2018-09-25T17:33:24.131Z,75.00
2018-09-25T17:35:58.410Z,69.40
2018-09-25T17:38:32.819Z,72.00
2018-09-25T17:41:07.323Z,71.40
2018-09-25T17:43:41.650Z,70.90
2018-09-25T17:46:16.031Z,70.10
2018-09-25T17:48:50.554Z,72.40
2018-09-25T17:51:25.047Z,74.00
2018-09-25T17:53:59.572Z,73.70
2018-09-25T17:56:34.606Z,72.80
2018-09-25T17:59:09.139Z,72.40
2018-09-25T18:01:44.641Z,75.20
2018-09-25T18:04:19.154Z,71.40
2018-09-25T18:06:54.064Z,75.30
2018-09-25T18:09:28.560Z,76.60
2018-09-25T18:12:03.307Z,75.60
2018-09-25T18:14:37.815Z,77.00
2018-09-25T18:17:12.586Z,76.30
2018-09-25T18:19:46.952Z,74.90
2018-09-25T18:22:21.269Z,75.30
2018-09-25T18:24:55.631Z,71.00
2018-09-25T18:27:30.186Z,75.10
2018-09-25T18:30:04.697Z,75.20
2018-09-25T18:32:39.100Z,76.40
2018-09-25T18:35:13.612Z,77.30
2018-09-25T18:37:49.045Z,78.30
2018-09-25T18:40:23.454Z,73.40
2018-09-25T18:42:57.862Z,66.50
2018-09-25T18:45:32.297Z,79.60
2018-09-25T18:48:06.987Z,78.30
2018-09-25T18:50:41.461Z,75.00
2018-09-25T18:53:16.523Z,78.60
2018-09-25T18:55:50.971Z,76.60
2018-09-25T18:58:26.626Z,75.60
2018-09-25T19:01:01.248Z,77.30
2018-09-25T19:03:35.915Z,81.40
2018-09-25T19:06:11.191Z,80.70
2018-09-25T19:08:45.790Z,78.90
2018-09-25T19:11:20.255Z,78.70
2018-09-25T19:13:55.242Z,79.90
2018-09-25T19:16:36.548Z,79.50
2018-09-25T19:19:11.740Z,78.00
2018-09-25T19:21:47.783Z,75.40
2018-09-25T19:24:22.285Z,79.30
2018-09-25T19:26:58.248Z,76.10
2018-09-25T19:29:33.180Z,81.40
2018-09-25T19:32:07.842Z,80.20
2018-09-25T19:34:42.292Z,81.70
2018-09-25T19:37:17.259Z,83.60
2018-09-25T19:39:52.300Z,82.00
2018-09-25T19:42:26.908Z,83.40
2018-09-25T19:45:01.323Z,80.50
2018-09-25T19:47:35.791Z,76.90
2018-09-25T19:50:10.515Z,82.30
2018-09-25T19:52:45.102Z,79.80
2018-09-25T19:55:19.548Z,81.40
2018-09-25T19:57:54.003Z,81.50
2018-09-25T20:00:35.087Z,82.10
2018-09-25T20:03:09.531Z,81.20
2018-09-25T20:05:44.280Z,79.20
2018-09-25T20:08:18.887Z,79.40
2018-09-25T20:10:53.943Z,81.70
2018-09-25T20:13:28.419Z,83.40
2018-09-25T20:16:03.191Z,83.30
2018-09-25T20:18:37.703Z,84.40
2018-09-25T20:21:12.876Z,83.70
2018-09-25T20:23:47.795Z,82.40
2018-09-25T20:26:22.600Z,84.90
2018-09-25T20:28:57.598Z,85.30
2018-09-25T20:31:32.721Z,85.30
2018-09-25T20:34:07.922Z,84.10
2018-09-25T20:36:43.211Z,86.80
2018-09-25T20:39:17.722Z,86.50
2018-09-25T20:41:52.658Z,83.90
2018-09-25T20:44:27.231Z,85.10
2018-09-25T20:47:02.119Z,87.00
2018-09-25T20:49:36.543Z,87.40
2018-09-25T20:52:11.944Z,88.40
2018-09-25T20:54:46.374Z,88.10
2018-09-25T20:57:21.653Z,89.00
2018-09-25T20:59:56.166Z,89.00
2018-09-25T21:02:31.100Z,89.30
2018-09-25T21:05:05.663Z,88.50
2018-09-25T21:07:40.496Z,90.40
2018-09-25T21:10:14.923Z,90.60
2018-09-25T21:12:49.415Z,90.40
2018-09-25T21:15:23.847Z,89.10
2018-09-25T21:17:58.483Z,89.10
2018-09-25T21:20:33.156Z,90.00
2018-09-25T21:23:07.753Z,90.30
2018-09-25T21:25:42.149Z,90.50
2018-09-25T21:28:16.655Z,90.40
2018-09-25T21:30:51.091Z,90.20
2018-09-25T21:33:25.591Z,90.10
2018-09-25T21:35:59.894Z,88.80
2018-09-25T21:38:34.374Z,90.40
2018-09-25T21:41:08.863Z,91.00
2018-09-25T21:43:43.462Z,90.50
2018-09-25T21:46:17.815Z,91.00
2018-09-25T21:48:52.376Z,90.80
2018-09-25T21:51:27.194Z,90.80
2018-09-25T21:54:01.339Z,91.20
2018-09-25T21:56:35.920Z,91.70
2018-09-25T21:59:10.673Z,90.50
2018-09-25T22:01:45.442Z,91.60
2018-09-25T22:04:19.923Z,90.50
2018-09-25T22:06:54.554Z,91.20
2018-09-25T22:09:29.043Z,92.00
2018-09-25T22:12:03.566Z,92.00
2018-09-25T22:14:37.871Z,91.90
2018-09-25T22:17:12.355Z,92.10
2018-09-25T22:19:46.905Z,91.90
2018-09-25T22:22:21.343Z,91.80
2018-09-25T22:24:55.778Z,92.10
2018-09-25T22:27:30.143Z,92.60
2018-09-25T22:30:04.559Z,92.10
2018-09-25T22:32:38.927Z,92.00
2018-09-25T22:35:13.383Z,92.70
2018-09-25T22:37:47.847Z,92.70
2018-09-25T22:40:22.479Z,92.50
2018-09-25T22:42:56.916Z,92.60
2018-09-25T22:45:31.435Z,92.70
2018-09-25T22:48:06.067Z,92.80
2018-09-25T22:50:40.622Z,93.00
2018-09-25T22:53:14.976Z,92.50
2018-09-25T22:55:49.403Z,93.00
2018-09-25T22:58:23.963Z,92.00
2018-09-25T23:00:58.779Z,92.20
2018-09-25T23:03:33.152Z,92.10
2018-09-25T23:06:08.030Z,92.00
2018-09-25T23:08:42.655Z,91.80
2018-09-25T23:11:17.088Z,91.80
2018-09-25T23:13:51.599Z,92.20
2018-09-25T23:16:26.139Z,92.70
2018-09-25T23:19:00.479Z,92.30
2018-09-25T23:21:35.175Z,92.30
2018-09-25T23:24:09.635Z,93.20
2018-09-25T23:26:44.050Z,92.80
2018-09-25T23:29:18.391Z,92.30
2018-09-25T23:31:52.931Z,92.90
2018-09-25T23:34:27.475Z,92.30
2018-09-25T23:37:02.106Z,92.70
2018-09-25T23:39:43.473Z,92.20
2018-09-25T23:42:18.063Z,92.30
2018-09-25T23:44:54.375Z,92.50
2018-09-25T23:47:32.628Z,93.00
2018-09-25T23:50:06.565Z,92.90
2018-09-25T23:53:38.707Z,93.20
2018-09-25T23:56:18.158Z,92.70
2018-09-25T23:58:50.026Z,93.10
